sensor_id;sensor_type;location;lat;lon;timestamp;P1;durP1;ratioP1;P2;durP2;ratioP2
703;SDS011;335;48.694;9.120;2023-03-12T00:00:39;11.50;;;4.87;;
703;SDS011;335;48.694;9.120;2023-03-12T00:03:05;5.30;;;4.05;;
703;SDS011;335;48.694;9.120;2023-03-12T00:05:30;6.83;;;4.53;;
703;SDS011;335;48.694;9.120;2023-03-12T00:07:56;8.67;;;4.30;;
703;SDS011;335;48.694;9.120;2023-03-12T00:10:24;5.75;;;3.95;;
703;SDS011;335;48.694;9.120;2023-03-12T00:12:49;6.75;;;3.90;;
703;SDS011;335;48.694;9.120;2023-03-12T00:15:15;6.00;;;4.83;;
703;SDS011;335;48.694;9.120;2023-03-12T00:17:40;8.43;;;4.47;;
703;SDS011;335;48.694;9.120;2023-03-12T00:20:06;5.87;;;3.87;;
703;SDS011;335;48.694;9.120;2023-03-12T00:22:32;4.33;;;3.53;;
703;SDS011;335;48.694;9.120;2023-03-12T00:24:58;4.30;;;3.50;;
703;SDS011;335;48.694;9.120;2023-03-12T00:27:24;3.97;;;3.57;;
703;SDS011;335;48.694;9.120;2023-03-12T00:29:49;9.93;;;4.95;;
703;SDS011;335;48.694;9.120;2023-03-12T00:32:15;6.23;;;4.20;;
703;SDS011;335;48.694;9.120;2023-03-12T00:34:40;5.60;;;4.47;;
703;SDS011;335;48.694;9.120;2023-03-12T00:37:06;7.10;;;5.13;;
703;SDS011;335;48.694;9.120;2023-03-12T00:39:32;7.32;;;4.40;;
703;SDS011;335;48.694;9.120;2023-03-12T00:41:57;5.50;;;3.83;;
703;SDS011;335;48.694;9.120;2023-03-12T00:44:23;7.10;;;4.23;;
703;SDS011;335;48.694;9.120;2023-03-12T00:46:48;4.30;;;3.90;;
703;SDS011;335;48.694;9.120;2023-03-12T00:49:13;7.97;;;4.80;;
703;SDS011;335;48.694;9.120;2023-03-12T00:51:38;7.60;;;4.43;;
703;SDS011;335;48.694;9.120;2023-03-12T00:54:04;8.03;;;4.50;;
703;SDS011;335;48.694;9.120;2023-03-12T00:56:29;3.67;;;3.37;;
703;SDS011;335;48.694;9.120;2023-03-12T00:58:55;5.93;;;3.90;;
703;SDS011;335;48.694;9.120;2023-03-12T01:01:20;3.80;;;3.10;;
703;SDS011;335;48.694;9.120;2023-03-12T01:03:45;4.47;;;4.07;;
703;SDS011;335;48.694;9.120;2023-03-12T01:06:11;5.13;;;3.83;;
703;SDS011;335;48.694;9.120;2023-03-12T01:08:37;5.83;;;4.60;;
703;SDS011;335;48.694;9.120;2023-03-12T01:11:02;6.10;;;4.30;;
703;SDS011;335;48.694;9.120;2023-03-12T01:13:28;5.20;;;4.50;;
703;SDS011;335;48.694;9.120;2023-03-12T01:15:53;7.87;;;4.50;;
703;SDS011;335;48.694;9.120;2023-03-12T01:18:18;6.37;;;4.60;;
703;SDS011;335;48.694;9.120;2023-03-12T01:20:44;4.50;;;4.10;;
703;SDS011;335;48.694;9.120;2023-03-12T01:23:09;6.13;;;5.50;;
703;SDS011;335;48.694;9.120;2023-03-12T01:25:35;5.50;;;5.00;;
703;SDS011;335;48.694;9.120;2023-03-12T01:28:00;13.07;;;5.27;;
703;SDS011;335;48.694;9.120;2023-03-12T01:30:26;7.70;;;5.03;;
703;SDS011;335;48.694;9.120;2023-03-12T01:32:51;7.00;;;4.30;;
703;SDS011;335;48.694;9.120;2023-03-12T01:35:17;4.77;;;4.10;;
703;SDS011;335;48.694;9.120;2023-03-12T01:37:42;7.07;;;5.00;;
703;SDS011;335;48.694;9.120;2023-03-12T01:40:11;5.40;;;4.57;;
703;SDS011;335;48.694;9.120;2023-03-12T01:42:38;5.35;;;4.20;;
703;SDS011;335;48.694;9.120;2023-03-12T01:45:04;5.37;;;4.37;;
703;SDS011;335;48.694;9.120;2023-03-12T01:47:30;6.13;;;5.03;;
703;SDS011;335;48.694;9.120;2023-03-12T01:49:58;6.18;;;4.45;;
703;SDS011;335;48.694;9.120;2023-03-12T01:52:34;5.10;;;4.60;;
703;SDS011;335;48.694;9.120;2023-03-12T01:57:37;8.20;;;4.65;;
703;SDS011;335;48.694;9.120;2023-03-12T02:00:10;11.07;;;5.32;;
703;SDS011;335;48.694;9.120;2023-03-12T02:02:43;6.38;;;5.07;;
703;SDS011;335;48.694;9.120;2023-03-12T02:07:47;6.47;;;4.30;;
703;SDS011;335;48.694;9.120;2023-03-12T02:10:13;6.23;;;4.80;;
703;SDS011;335;48.694;9.120;2023-03-12T02:12:38;7.23;;;5.43;;
703;SDS011;335;48.694;9.120;2023-03-12T02:15:04;4.60;;;4.20;;
703;SDS011;335;48.694;9.120;2023-03-12T02:17:30;6.13;;;4.85;;
703;SDS011;335;48.694;9.120;2023-03-12T02:20:15;6.78;;;5.50;;
703;SDS011;335;48.694;9.120;2023-03-12T02:22:54;6.65;;;4.43;;
703;SDS011;335;48.694;9.120;2023-03-12T02:25:27;7.32;;;4.75;;
703;SDS011;335;48.694;9.120;2023-03-12T02:27:59;5.88;;;4.40;;
703;SDS011;335;48.694;9.120;2023-03-12T02:30:26;7.75;;;5.15;;
703;SDS011;335;48.694;9.120;2023-03-12T02:32:52;8.23;;;5.80;;
703;SDS011;335;48.694;9.120;2023-03-12T02:35:18;6.07;;;4.72;;
703;SDS011;335;48.694;9.120;2023-03-12T02:37:47;6.00;;;4.87;;
703;SDS011;335;48.694;9.120;2023-03-12T02:40:23;7.70;;;4.60;;
703;SDS011;335;48.694;9.120;2023-03-12T02:42:58;6.53;;;5.60;;
703;SDS011;335;48.694;9.120;2023-03-12T02:45:24;5.73;;;4.87;;
703;SDS011;335;48.694;9.120;2023-03-12T02:47:50;5.47;;;4.97;;
703;SDS011;335;48.694;9.120;2023-03-12T02:50:15;7.80;;;5.27;;
703;SDS011;335;48.694;9.120;2023-03-12T02:52:40;8.07;;;5.00;;
703;SDS011;335;48.694;9.120;2023-03-12T02:55:06;6.13;;;5.23;;
703;SDS011;335;48.694;9.120;2023-03-12T02:57:31;7.20;;;6.40;;
703;SDS011;335;48.694;9.120;2023-03-12T02:59:57;6.27;;;5.57;;
703;SDS011;335;48.694;9.120;2023-03-12T03:02:22;9.23;;;4.83;;
703;SDS011;335;48.694;9.120;2023-03-12T03:04:48;8.50;;;5.90;;
703;SDS011;335;48.694;9.120;2023-03-12T03:07:13;6.00;;;5.30;;
703;SDS011;335;48.694;9.120;2023-03-12T03:09:39;4.97;;;4.10;;
703;SDS011;335;48.694;9.120;2023-03-12T03:12:04;7.00;;;5.70;;
703;SDS011;335;48.694;9.120;2023-03-12T03:14:30;6.37;;;5.00;;
703;SDS011;335;48.694;9.120;2023-03-12T03:16:55;7.80;;;5.30;;
703;SDS011;335;48.694;9.120;2023-03-12T03:19:20;6.13;;;5.10;;
703;SDS011;335;48.694;9.120;2023-03-12T03:21:46;9.63;;;4.97;;
703;SDS011;335;48.694;9.120;2023-03-12T03:24:11;7.27;;;5.57;;
703;SDS011;335;48.694;9.120;2023-03-12T03:26:36;9.40;;;5.03;;
703;SDS011;335;48.694;9.120;2023-03-12T03:29:02;5.53;;;4.50;;
703;SDS011;335;48.694;9.120;2023-03-12T03:31:27;5.50;;;5.00;;
703;SDS011;335;48.694;9.120;2023-03-12T03:33:52;5.87;;;5.20;;
703;SDS011;335;48.694;9.120;2023-03-12T03:36:18;6.37;;;4.57;;
703;SDS011;335;48.694;9.120;2023-03-12T03:38:43;5.90;;;5.27;;
703;SDS011;335;48.694;9.120;2023-03-12T03:41:13;9.02;;;6.05;;
703;SDS011;335;48.694;9.120;2023-03-12T03:43:39;7.75;;;5.38;;
703;SDS011;335;48.694;9.120;2023-03-12T03:46:05;7.30;;;6.10;;
703;SDS011;335;48.694;9.120;2023-03-12T03:48:30;7.10;;;5.60;;
703;SDS011;335;48.694;9.120;2023-03-12T03:51:03;5.30;;;4.80;;
703;SDS011;335;48.694;9.120;2023-03-12T03:53:29;6.03;;;5.13;;
703;SDS011;335;48.694;9.120;2023-03-12T03:55:54;7.70;;;5.90;;
703;SDS011;335;48.694;9.120;2023-03-12T03:58:20;6.90;;;5.80;;
703;SDS011;335;48.694;9.120;2023-03-12T04:00:45;4.53;;;4.10;;
703;SDS011;335;48.694;9.120;2023-03-12T04:03:10;6.17;;;5.57;;
703;SDS011;335;48.694;9.120;2023-03-12T04:05:37;5.20;;;4.70;;
703;SDS011;335;48.694;9.120;2023-03-12T04:08:04;5.53;;;4.68;;
703;SDS011;335;48.694;9.120;2023-03-12T04:10:29;8.93;;;4.00;;
703;SDS011;335;48.694;9.120;2023-03-12T04:12:55;5.10;;;4.53;;
703;SDS011;335;48.694;9.120;2023-03-12T04:15:20;6.63;;;5.00;;
703;SDS011;335;48.694;9.120;2023-03-12T04:17:46;5.13;;;4.53;;
703;SDS011;335;48.694;9.120;2023-03-12T04:20:11;4.23;;;3.83;;
703;SDS011;335;48.694;9.120;2023-03-12T04:22:37;4.77;;;4.27;;
703;SDS011;335;48.694;9.120;2023-03-12T04:25:02;4.70;;;3.43;;
703;SDS011;335;48.694;9.120;2023-03-12T04:27:28;5.68;;;4.68;;
703;SDS011;335;48.694;9.120;2023-03-12T04:29:54;5.43;;;4.47;;
703;SDS011;335;48.694;9.120;2023-03-12T04:32:19;4.30;;;3.17;;
703;SDS011;335;48.694;9.120;2023-03-12T04:34:45;7.40;;;4.53;;
703;SDS011;335;48.694;9.120;2023-03-12T04:37:10;3.93;;;3.40;;
703;SDS011;335;48.694;9.120;2023-03-12T04:39:38;4.70;;;3.90;;
703;SDS011;335;48.694;9.120;2023-03-12T04:42:04;5.25;;;3.50;;
703;SDS011;335;48.694;9.120;2023-03-12T04:44:29;3.70;;;3.40;;
703;SDS011;335;48.694;9.120;2023-03-12T04:46:54;4.30;;;3.50;;
703;SDS011;335;48.694;9.120;2023-03-12T04:49:20;5.10;;;3.70;;
703;SDS011;335;48.694;9.120;2023-03-12T04:51:45;4.20;;;3.90;;
703;SDS011;335;48.694;9.120;2023-03-12T04:54:10;4.50;;;3.80;;
703;SDS011;335;48.694;9.120;2023-03-12T04:56:36;4.90;;;4.10;;
703;SDS011;335;48.694;9.120;2023-03-12T04:59:01;3.20;;;3.00;;
703;SDS011;335;48.694;9.120;2023-03-12T05:01:29;6.00;;;4.27;;
703;SDS011;335;48.694;9.120;2023-03-12T05:03:55;4.68;;;4.15;;
703;SDS011;335;48.694;9.120;2023-03-12T05:06:21;3.43;;;3.23;;
703;SDS011;335;48.694;9.120;2023-03-12T05:08:48;8.25;;;4.47;;
703;SDS011;335;48.694;9.120;2023-03-12T05:11:13;6.30;;;4.27;;
703;SDS011;335;48.694;9.120;2023-03-12T05:13:39;3.93;;;3.63;;
703;SDS011;335;48.694;9.120;2023-03-12T05:16:04;4.60;;;3.63;;
703;SDS011;335;48.694;9.120;2023-03-12T05:18:30;4.80;;;4.40;;
703;SDS011;335;48.694;9.120;2023-03-12T05:23:28;6.30;;;4.20;;
703;SDS011;335;48.694;9.120;2023-03-12T05:25:54;4.70;;;4.20;;
703;SDS011;335;48.694;9.120;2023-03-12T05:28:20;5.50;;;4.53;;
703;SDS011;335;48.694;9.120;2023-03-12T05:30:51;5.63;;;4.60;;
703;SDS011;335;48.694;9.120;2023-03-12T05:33:16;6.10;;;4.83;;
703;SDS011;335;48.694;9.120;2023-03-12T05:35:42;6.80;;;4.40;;
703;SDS011;335;48.694;9.120;2023-03-12T05:38:07;6.37;;;4.70;;
703;SDS011;335;48.694;9.120;2023-03-12T05:40:32;7.40;;;3.90;;
703;SDS011;335;48.694;9.120;2023-03-12T05:42:58;5.10;;;4.53;;
703;SDS011;335;48.694;9.120;2023-03-12T05:45:23;4.47;;;4.07;;
703;SDS011;335;48.694;9.120;2023-03-12T05:47:48;9.00;;;4.40;;
703;SDS011;335;48.694;9.120;2023-03-12T05:50:14;6.97;;;4.70;;
703;SDS011;335;48.694;9.120;2023-03-12T05:52:40;4.82;;;4.30;;
703;SDS011;335;48.694;9.120;2023-03-12T05:55:06;7.00;;;4.57;;
703;SDS011;335;48.694;9.120;2023-03-12T05:57:31;5.63;;;3.77;;
703;SDS011;335;48.694;9.120;2023-03-12T05:59:57;4.80;;;4.40;;
703;SDS011;335;48.694;9.120;2023-03-12T06:02:22;4.43;;;4.10;;
703;SDS011;335;48.694;9.120;2023-03-12T06:04:47;5.73;;;5.13;;
703;SDS011;335;48.694;9.120;2023-03-12T06:07:13;4.90;;;4.50;;
703;SDS011;335;48.694;9.120;2023-03-12T06:09:38;4.73;;;4.00;;
703;SDS011;335;48.694;9.120;2023-03-12T06:12:03;5.07;;;4.63;;
703;SDS011;335;48.694;9.120;2023-03-12T06:14:29;4.60;;;4.20;;
703;SDS011;335;48.694;9.120;2023-03-12T06:16:54;4.03;;;3.73;;
703;SDS011;335;48.694;9.120;2023-03-12T06:19:19;4.83;;;4.43;;
703;SDS011;335;48.694;9.120;2023-03-12T06:21:45;8.50;;;4.63;;
703;SDS011;335;48.694;9.120;2023-03-12T06:24:10;8.57;;;4.97;;
703;SDS011;335;48.694;9.120;2023-03-12T06:26:35;4.57;;;4.00;;
703;SDS011;335;48.694;9.120;2023-03-12T06:29:01;5.83;;;5.33;;
703;SDS011;335;48.694;9.120;2023-03-12T06:31:26;4.63;;;4.30;;
703;SDS011;335;48.694;9.120;2023-03-12T06:33:51;4.87;;;4.47;;
703;SDS011;335;48.694;9.120;2023-03-12T06:36:18;4.40;;;4.00;;
703;SDS011;335;48.694;9.120;2023-03-12T06:38:43;5.50;;;5.00;;
703;SDS011;335;48.694;9.120;2023-03-12T06:41:10;5.87;;;5.27;;
703;SDS011;335;48.694;9.120;2023-03-12T06:43:38;6.50;;;5.90;;
703;SDS011;335;48.694;9.120;2023-03-12T06:46:05;7.05;;;6.35;;
703;SDS011;335;48.694;9.120;2023-03-12T06:48:32;10.32;;;6.57;;
703;SDS011;335;48.694;9.120;2023-03-12T06:51:00;5.95;;;5.45;;
703;SDS011;335;48.694;9.120;2023-03-12T06:53:27;7.35;;;4.93;;
703;SDS011;335;48.694;9.120;2023-03-12T06:55:52;7.50;;;5.47;;
703;SDS011;335;48.694;9.120;2023-03-12T06:58:17;5.77;;;5.20;;
703;SDS011;335;48.694;9.120;2023-03-12T07:00:43;5.50;;;5.00;;
703;SDS011;335;48.694;9.120;2023-03-12T07:03:08;7.90;;;5.60;;
703;SDS011;335;48.694;9.120;2023-03-12T07:05:34;5.40;;;4.90;;
703;SDS011;335;48.694;9.120;2023-03-12T07:07:59;5.93;;;5.43;;
703;SDS011;335;48.694;9.120;2023-03-12T07:10:25;5.33;;;4.83;;
703;SDS011;335;48.694;9.120;2023-03-12T07:12:53;6.60;;;5.07;;
703;SDS011;335;48.694;9.120;2023-03-12T07:15:19;5.87;;;5.20;;
703;SDS011;335;48.694;9.120;2023-03-12T07:17:44;5.10;;;4.70;;
703;SDS011;335;48.694;9.120;2023-03-12T07:20:09;6.03;;;4.70;;
703;SDS011;335;48.694;9.120;2023-03-12T07:22:35;5.65;;;5.15;;
703;SDS011;335;48.694;9.120;2023-03-12T07:25:01;5.50;;;4.47;;
703;SDS011;335;48.694;9.120;2023-03-12T07:27:27;7.50;;;4.82;;
703;SDS011;335;48.694;9.120;2023-03-12T07:29:52;4.97;;;4.40;;
703;SDS011;335;48.694;9.120;2023-03-12T07:32:17;4.60;;;4.30;;
703;SDS011;335;48.694;9.120;2023-03-12T07:34:43;5.80;;;4.20;;
703;SDS011;335;48.694;9.120;2023-03-12T07:37:08;5.13;;;4.63;;
703;SDS011;335;48.694;9.120;2023-03-12T07:39:34;6.60;;;4.67;;
703;SDS011;335;48.694;9.120;2023-03-12T07:41:59;4.47;;;4.10;;
703;SDS011;335;48.694;9.120;2023-03-12T07:44:24;6.00;;;4.70;;
703;SDS011;335;48.694;9.120;2023-03-12T07:46:50;7.50;;;5.20;;
703;SDS011;335;48.694;9.120;2023-03-12T07:49:16;5.20;;;4.80;;
703;SDS011;335;48.694;9.120;2023-03-12T07:51:41;6.50;;;4.10;;
703;SDS011;335;48.694;9.120;2023-03-12T07:54:06;6.30;;;5.73;;
703;SDS011;335;48.694;9.120;2023-03-12T07:56:32;4.50;;;4.10;;
703;SDS011;335;48.694;9.120;2023-03-12T07:58:57;5.30;;;4.73;;
703;SDS011;335;48.694;9.120;2023-03-12T08:01:22;5.20;;;4.27;;
703;SDS011;335;48.694;9.120;2023-03-12T08:03:49;4.97;;;4.32;;
703;SDS011;335;48.694;9.120;2023-03-12T08:06:14;6.00;;;4.53;;
703;SDS011;335;48.694;9.120;2023-03-12T08:08:40;3.93;;;3.63;;
703;SDS011;335;48.694;9.120;2023-03-12T08:11:06;4.13;;;3.75;;
703;SDS011;335;48.694;9.120;2023-03-12T08:13:32;3.88;;;3.58;;
703;SDS011;335;48.694;9.120;2023-03-12T08:15:58;4.40;;;4.00;;
703;SDS011;335;48.694;9.120;2023-03-12T08:18:24;5.47;;;4.37;;
703;SDS011;335;48.694;9.120;2023-03-12T08:20:50;4.30;;;3.55;;
703;SDS011;335;48.694;9.120;2023-03-12T08:23:16;4.32;;;3.60;;
703;SDS011;335;48.694;9.120;2023-03-12T08:25:43;5.03;;;3.80;;
703;SDS011;335;48.694;9.120;2023-03-12T08:28:10;3.72;;;3.40;;
703;SDS011;335;48.694;9.120;2023-03-12T08:30:36;7.50;;;4.23;;
703;SDS011;335;48.694;9.120;2023-03-12T08:33:01;8.37;;;5.93;;
703;SDS011;335;48.694;9.120;2023-03-12T08:35:27;28.33;;;16.50;;
703;SDS011;335;48.694;9.120;2023-03-12T08:37:52;9.60;;;6.07;;
703;SDS011;335;48.694;9.120;2023-03-12T08:40:18;5.10;;;4.50;;
703;SDS011;335;48.694;9.120;2023-03-12T08:42:43;5.93;;;4.73;;
703;SDS011;335;48.694;9.120;2023-03-12T08:45:09;5.10;;;4.60;;
703;SDS011;335;48.694;9.120;2023-03-12T08:47:36;5.25;;;4.85;;
703;SDS011;335;48.694;9.120;2023-03-12T08:50:05;4.65;;;4.25;;
703;SDS011;335;48.694;9.120;2023-03-12T08:52:31;5.25;;;4.82;;
703;SDS011;335;48.694;9.120;2023-03-12T08:54:56;4.67;;;4.27;;
703;SDS011;335;48.694;9.120;2023-03-12T08:57:22;5.63;;;5.13;;
703;SDS011;335;48.694;9.120;2023-03-12T08:59:47;5.03;;;4.63;;
703;SDS011;335;48.694;9.120;2023-03-12T09:02:12;9.37;;;5.40;;
703;SDS011;335;48.694;9.120;2023-03-12T09:04:38;6.03;;;5.40;;
703;SDS011;335;48.694;9.120;2023-03-12T09:07:03;7.17;;;6.47;;
703;SDS011;335;48.694;9.120;2023-03-12T09:09:29;6.83;;;6.13;;
703;SDS011;335;48.694;9.120;2023-03-12T09:11:54;6.70;;;6.10;;
703;SDS011;335;48.694;9.120;2023-03-12T09:14:20;7.60;;;5.67;;
703;SDS011;335;48.694;9.120;2023-03-12T09:16:45;5.53;;;5.03;;
703;SDS011;335;48.694;9.120;2023-03-12T09:19:11;6.27;;;5.67;;
703;SDS011;335;48.694;9.120;2023-03-12T09:21:36;5.47;;;5.00;;
703;SDS011;335;48.694;9.120;2023-03-12T09:24:02;8.53;;;6.07;;
703;SDS011;335;48.694;9.120;2023-03-12T09:26:27;6.70;;;5.07;;
703;SDS011;335;48.694;9.120;2023-03-12T09:28:53;5.50;;;5.00;;
703;SDS011;335;48.694;9.120;2023-03-12T09:31:18;6.50;;;5.90;;
703;SDS011;335;48.694;9.120;2023-03-12T09:33:43;6.83;;;5.70;;
703;SDS011;335;48.694;9.120;2023-03-12T09:36:09;6.23;;;5.63;;
703;SDS011;335;48.694;9.120;2023-03-12T09:38:34;6.13;;;5.63;;
703;SDS011;335;48.694;9.120;2023-03-12T09:41:02;6.97;;;6.13;;
703;SDS011;335;48.694;9.120;2023-03-12T09:46:28;6.50;;;6.03;;
703;SDS011;335;48.694;9.120;2023-03-12T09:49:25;6.10;;;5.47;;
703;SDS011;335;48.694;9.120;2023-03-12T09:55:34;6.17;;;5.57;;
703;SDS011;335;48.694;9.120;2023-03-12T09:58:01;6.73;;;5.40;;
703;SDS011;335;48.694;9.120;2023-03-12T10:00:31;6.00;;;5.50;;
703;SDS011;335;48.694;9.120;2023-03-12T10:03:03;6.40;;;5.80;;
703;SDS011;335;48.694;9.120;2023-03-12T10:16:46;4.03;;;3.73;;
703;SDS011;335;48.694;9.120;2023-03-12T10:25:35;5.60;;;4.03;;
703;SDS011;335;48.694;9.120;2023-03-12T10:28:14;3.50;;;3.10;;
703;SDS011;335;48.694;9.120;2023-03-12T10:30:42;2.93;;;2.63;;
703;SDS011;335;48.694;9.120;2023-03-12T10:33:12;3.23;;;2.80;;
703;SDS011;335;48.694;9.120;2023-03-12T10:35:40;3.23;;;3.00;;
703;SDS011;335;48.694;9.120;2023-03-12T10:38:08;2.53;;;2.33;;
703;SDS011;335;48.694;9.120;2023-03-12T10:40:36;1.70;;;1.60;;
703;SDS011;335;48.694;9.120;2023-03-12T10:43:03;1.87;;;1.13;;
703;SDS011;335;48.694;9.120;2023-03-12T10:48:33;0.90;;;0.90;;
703;SDS011;335;48.694;9.120;2023-03-12T10:51:03;3.53;;;1.00;;
703;SDS011;335;48.694;9.120;2023-03-12T10:53:39;1.70;;;0.90;;
703;SDS011;335;48.694;9.120;2023-03-12T10:56:10;0.90;;;0.90;;
703;SDS011;335;48.694;9.120;2023-03-12T10:58:43;1.10;;;1.00;;
703;SDS011;335;48.694;9.120;2023-03-12T11:03:38;1.23;;;0.70;;
703;SDS011;335;48.694;9.120;2023-03-12T11:06:04;0.60;;;0.60;;
703;SDS011;335;48.694;9.120;2023-03-12T11:08:32;0.70;;;0.60;;
703;SDS011;335;48.694;9.120;2023-03-12T11:10:59;1.83;;;0.83;;
703;SDS011;335;48.694;9.120;2023-03-12T11:13:36;1.17;;;0.60;;
703;SDS011;335;48.694;9.120;2023-03-12T11:18:40;0.83;;;0.40;;
703;SDS011;335;48.694;9.120;2023-03-12T11:21:18;1.13;;;0.73;;
703;SDS011;335;48.694;9.120;2023-03-12T11:26:22;0.93;;;0.60;;
703;SDS011;335;48.694;9.120;2023-03-12T11:31:54;1.27;;;0.80;;
703;SDS011;335;48.694;9.120;2023-03-12T11:34:47;0.67;;;0.50;;
703;SDS011;335;48.694;9.120;2023-03-12T11:40:12;0.80;;;0.50;;
703;SDS011;335;48.694;9.120;2023-03-12T11:56:40;0.93;;;0.63;;
703;SDS011;335;48.694;9.120;2023-03-12T12:18:23;1.60;;;1.33;;
703;SDS011;335;48.694;9.120;2023-03-12T12:24:21;3.70;;;1.10;;
703;SDS011;335;48.694;9.120;2023-03-12T12:26:52;1.77;;;1.23;;
703;SDS011;335;48.694;9.120;2023-03-12T12:35:37;1.70;;;1.00;;
703;SDS011;335;48.694;9.120;2023-03-12T12:40:41;1.47;;;1.07;;
703;SDS011;335;48.694;9.120;2023-03-12T12:46:05;3.70;;;1.33;;
703;SDS011;335;48.694;9.120;2023-03-12T12:48:35;2.30;;;1.37;;
703;SDS011;335;48.694;9.120;2023-03-12T12:51:03;1.90;;;1.47;;
703;SDS011;335;48.694;9.120;2023-03-12T12:53:50;2.20;;;1.03;;
703;SDS011;335;48.694;9.120;2023-03-12T12:56:33;6.33;;;2.37;;
703;SDS011;335;48.694;9.120;2023-03-12T13:01:48;2.70;;;1.50;;
703;SDS011;335;48.694;9.120;2023-03-12T13:04:17;4.00;;;1.93;;
703;SDS011;335;48.694;9.120;2023-03-12T13:06:54;3.23;;;1.87;;
703;SDS011;335;48.694;9.120;2023-03-12T13:09:33;3.10;;;1.70;;
703;SDS011;335;48.694;9.120;2023-03-12T13:12:13;1.50;;;1.40;;
703;SDS011;335;48.694;9.120;2023-03-12T13:14:44;1.30;;;0.93;;
703;SDS011;335;48.694;9.120;2023-03-12T13:17:32;4.97;;;1.20;;
703;SDS011;335;48.694;9.120;2023-03-12T13:20:15;2.53;;;1.10;;
703;SDS011;335;48.694;9.120;2023-03-12T13:28:59;1.47;;;1.30;;
703;SDS011;335;48.694;9.120;2023-03-12T13:31:37;1.07;;;0.83;;
703;SDS011;335;48.694;9.120;2023-03-12T13:36:42;4.73;;;4.30;;
703;SDS011;335;48.694;9.120;2023-03-12T13:41:40;3.77;;;1.27;;
703;SDS011;335;48.694;9.120;2023-03-12T13:49:33;3.67;;;2.47;;
703;SDS011;335;48.694;9.120;2023-03-12T13:54:59;1.67;;;0.80;;
703;SDS011;335;48.694;9.120;2023-03-12T14:00:42;1.40;;;1.20;;
703;SDS011;335;48.694;9.120;2023-03-12T14:03:17;1.33;;;1.10;;
703;SDS011;335;48.694;9.120;2023-03-12T14:08:32;2.80;;;1.20;;
703;SDS011;335;48.694;9.120;2023-03-12T14:11:37;1.17;;;0.60;;
703;SDS011;335;48.694;9.120;2023-03-12T14:17:22;2.03;;;0.70;;
703;SDS011;335;48.694;9.120;2023-03-12T14:19:56;3.73;;;0.97;;
703;SDS011;335;48.694;9.120;2023-03-12T14:22:27;1.50;;;0.73;;
703;SDS011;335;48.694;9.120;2023-03-12T14:24:56;1.23;;;0.63;;
703;SDS011;335;48.694;9.120;2023-03-12T14:27:28;1.60;;;0.67;;
703;SDS011;335;48.694;9.120;2023-03-12T14:29:56;2.27;;;1.60;;
703;SDS011;335;48.694;9.120;2023-03-12T14:32:24;1.17;;;1.07;;
703;SDS011;335;48.694;9.120;2023-03-12T14:37:49;3.67;;;2.13;;
703;SDS011;335;48.694;9.120;2023-03-12T14:40:37;2.93;;;0.97;;
703;SDS011;335;48.694;9.120;2023-03-12T14:45:53;2.70;;;1.10;;
703;SDS011;335;48.694;9.120;2023-03-12T14:48:26;2.07;;;0.73;;
703;SDS011;335;48.694;9.120;2023-03-12T14:50:54;3.03;;;1.20;;
703;SDS011;335;48.694;9.120;2023-03-12T14:53:21;1.83;;;0.90;;
703;SDS011;335;48.694;9.120;2023-03-12T14:55:59;1.60;;;1.30;;
703;SDS011;335;48.694;9.120;2023-03-12T14:58:24;1.90;;;1.30;;
703;SDS011;335;48.694;9.120;2023-03-12T15:00:58;2.10;;;1.40;;
703;SDS011;335;48.694;9.120;2023-03-12T15:03:25;2.50;;;1.53;;
703;SDS011;335;48.694;9.120;2023-03-12T15:05:51;2.10;;;1.13;;
703;SDS011;335;48.694;9.120;2023-03-12T15:08:17;3.10;;;1.70;;
703;SDS011;335;48.694;9.120;2023-03-12T15:10:50;1.43;;;1.23;;
703;SDS011;335;48.694;9.120;2023-03-12T15:13:20;3.20;;;1.37;;
703;SDS011;335;48.694;9.120;2023-03-12T15:15:47;5.23;;;1.43;;
703;SDS011;335;48.694;9.120;2023-03-12T15:20:43;4.00;;;1.17;;
703;SDS011;335;48.694;9.120;2023-03-12T15:23:10;3.47;;;1.30;;
703;SDS011;335;48.694;9.120;2023-03-12T15:25:36;16.43;;;8.73;;
703;SDS011;335;48.694;9.120;2023-03-12T15:28:06;6.93;;;4.40;;
703;SDS011;335;48.694;9.120;2023-03-12T15:31:01;2.87;;;1.33;;
703;SDS011;335;48.694;9.120;2023-03-12T15:33:28;4.83;;;2.10;;
703;SDS011;335;48.694;9.120;2023-03-12T15:36:02;7.10;;;1.83;;
703;SDS011;335;48.694;9.120;2023-03-12T15:38:30;4.00;;;2.13;;
703;SDS011;335;48.694;9.120;2023-03-12T15:40:58;2.60;;;1.33;;
703;SDS011;335;48.694;9.120;2023-03-12T15:43:30;3.17;;;1.37;;
703;SDS011;335;48.694;9.120;2023-03-12T15:46:01;4.83;;;2.00;;
703;SDS011;335;48.694;9.120;2023-03-12T15:48:28;4.03;;;2.27;;
703;SDS011;335;48.694;9.120;2023-03-12T15:50:55;8.50;;;1.53;;
703;SDS011;335;48.694;9.120;2023-03-12T15:56:04;3.60;;;1.40;;
703;SDS011;335;48.694;9.120;2023-03-12T15:58:34;6.17;;;1.80;;
703;SDS011;335;48.694;9.120;2023-03-12T16:01:09;7.10;;;2.30;;
703;SDS011;335;48.694;9.120;2023-03-12T16:03:36;3.60;;;1.60;;
703;SDS011;335;48.694;9.120;2023-03-12T16:06:03;3.43;;;1.30;;
703;SDS011;335;48.694;9.120;2023-03-12T16:09:11;4.70;;;1.47;;
703;SDS011;335;48.694;9.120;2023-03-12T16:11:21;3.37;;;2.00;;
703;SDS011;335;48.694;9.120;2023-03-12T16:13:49;6.70;;;1.80;;
703;SDS011;335;48.694;9.120;2023-03-12T16:16:16;5.10;;;1.90;;
703;SDS011;335;48.694;9.120;2023-03-12T16:18:42;6.07;;;1.50;;
703;SDS011;335;48.694;9.120;2023-03-12T16:21:08;1.93;;;1.43;;
703;SDS011;335;48.694;9.120;2023-03-12T16:23:34;6.63;;;1.97;;
703;SDS011;335;48.694;9.120;2023-03-12T16:26:00;3.63;;;1.73;;
703;SDS011;335;48.694;9.120;2023-03-12T16:28:26;3.17;;;1.60;;
703;SDS011;335;48.694;9.120;2023-03-12T16:30:52;4.60;;;1.90;;
703;SDS011;335;48.694;9.120;2023-03-12T16:33:18;4.10;;;1.70;;
703;SDS011;335;48.694;9.120;2023-03-12T16:35:45;5.77;;;2.30;;
703;SDS011;335;48.694;9.120;2023-03-12T16:38:10;9.50;;;6.13;;
703;SDS011;335;48.694;9.120;2023-03-12T16:40:37;6.87;;;3.00;;
703;SDS011;335;48.694;9.120;2023-03-12T16:43:04;4.70;;;1.60;;
703;SDS011;335;48.694;9.120;2023-03-12T16:45:32;5.20;;;2.30;;
703;SDS011;335;48.694;9.120;2023-03-12T16:47:59;6.83;;;2.03;;
703;SDS011;335;48.694;9.120;2023-03-12T16:50:26;7.03;;;2.50;;
703;SDS011;335;48.694;9.120;2023-03-12T16:52:52;2.43;;;1.73;;
703;SDS011;335;48.694;9.120;2023-03-12T16:55:18;4.73;;;2.50;;
703;SDS011;335;48.694;9.120;2023-03-12T16:57:45;7.97;;;2.23;;
703;SDS011;335;48.694;9.120;2023-03-12T17:00:14;5.20;;;2.70;;
703;SDS011;335;48.694;9.120;2023-03-12T17:02:46;3.50;;;1.57;;
703;SDS011;335;48.694;9.120;2023-03-12T17:05:12;7.80;;;2.63;;
703;SDS011;335;48.694;9.120;2023-03-12T17:07:37;6.80;;;2.50;;
703;SDS011;335;48.694;9.120;2023-03-12T17:10:03;11.87;;;5.70;;
703;SDS011;335;48.694;9.120;2023-03-12T17:12:30;14.93;;;6.53;;
703;SDS011;335;48.694;9.120;2023-03-12T17:14:58;35.00;;;15.77;;
703;SDS011;335;48.694;9.120;2023-03-12T17:17:24;15.47;;;6.67;;
703;SDS011;335;48.694;9.120;2023-03-12T17:19:49;8.03;;;2.80;;
703;SDS011;335;48.694;9.120;2023-03-12T17:22:16;8.17;;;2.50;;
703;SDS011;335;48.694;9.120;2023-03-12T17:24:42;4.87;;;1.97;;
703;SDS011;335;48.694;9.120;2023-03-12T17:27:08;4.40;;;2.73;;
703;SDS011;335;48.694;9.120;2023-03-12T17:29:34;4.80;;;2.20;;
703;SDS011;335;48.694;9.120;2023-03-12T17:31:59;7.93;;;4.10;;
703;SDS011;335;48.694;9.120;2023-03-12T17:34:24;4.33;;;2.60;;
703;SDS011;335;48.694;9.120;2023-03-12T17:36:49;6.73;;;3.33;;
703;SDS011;335;48.694;9.120;2023-03-12T17:39:15;3.63;;;2.60;;
703;SDS011;335;48.694;9.120;2023-03-12T17:41:40;8.23;;;2.07;;
703;SDS011;335;48.694;9.120;2023-03-12T17:44:06;6.47;;;2.10;;
703;SDS011;335;48.694;9.120;2023-03-12T17:46:32;6.40;;;2.40;;
703;SDS011;335;48.694;9.120;2023-03-12T17:48:57;7.27;;;2.80;;
703;SDS011;335;48.694;9.120;2023-03-12T17:51:23;14.50;;;8.97;;
703;SDS011;335;48.694;9.120;2023-03-12T17:53:48;16.70;;;9.10;;
703;SDS011;335;48.694;9.120;2023-03-12T17:56:14;10.83;;;6.57;;
703;SDS011;335;48.694;9.120;2023-03-12T17:58:41;16.23;;;11.03;;
703;SDS011;335;48.694;9.120;2023-03-12T18:01:08;4.37;;;2.17;;
703;SDS011;335;48.694;9.120;2023-03-12T18:03:33;7.87;;;2.43;;
703;SDS011;335;48.694;9.120;2023-03-12T18:05:58;4.70;;;2.13;;